Pride Of Bruges — PGJW — position and weather

sailwx.info

Track history (hours):
 
Tides and Currents Weather Stations Pressure Air Temp Water Temp Dewpoint Dewpoint Depression Visibility Wind Speed Wind Dir Waves Ship Positions

Pride Of Bruges

Operator: P&O Ferries

Last reported at 2018-Nov-11 02:32 UTC. Time now 2018-Nov-18 17:18 UTC.
Position N 53°00' E 001°29'.

Length 180 m; draft 5.7 m.

Type: Ship. MMSI: 244387000.

Date/timePositionNaut miles runAvg speedWind from/ knotsBaromVisibWave heightAir tempDewpointWater temp
2018-Nov-11 02:32N 53°00' E 001°29'816.2
2018-Nov-11 02:02N 52°54' E 001°38'815.4
2018-Nov-11 01:32N 52°49' E 001°47'714.5
2018-Nov-11 01:02N 52°43' E 001°54'713.8
2018-Nov-11 00:32N 52°37' E 002°00'713.8
2018-Nov-11 00:02N 52°31' E 002°05'713.2
2018-Nov-10 23:33N 52°25' E 002°10'612.8
2018-Nov-10 23:02N 52°19' E 002°14'612.4
2018-Nov-10 22:32N 52°13' E 002°18'612.3
2018-Nov-10 22:02N 52°08' E 002°23'612.3
2018-Nov-10 21:32N 52°02' E 002°27'812.5
2018-Nov-10 20:55N 51°55' E 002°32'1513.1
2018-Nov-10 19:49N 51°42' E 002°41'414.1
2018-Nov-10 19:31N 51°38' E 002°44'714.3
2018-Nov-10 19:02N 51°33' E 002°51'714.6
2018-Nov-10 18:33N 51°27' E 002°57'714.7
2018-Nov-10 18:02N 51°24' E 003°08'4 7.8
2018-Nov-10 17:32N 51°20' E 003°11'0 0.0
2018-Nov-10 17:01N 51°20' E 003°11'0 0.0
2018-Nov-10 16:30N 51°20' E 003°11'0 0.0
2018-Nov-10 16:00N 51°20' E 003°11'0 0.0
2018-Nov-10 15:30N 51°20' E 003°11'0 0.0
2018-Nov-10 15:00N 51°20' E 003°11'0 0.0
2018-Nov-10 14:32N 51°20' E 003°11'0 0.0
2018-Nov-10 14:02N 51°20' E 003°11'0 0.0
2018-Nov-10 13:32N 51°20' E 003°11'0 0.0
2018-Nov-10 13:02N 51°20' E 003°11'0 0.0
2018-Nov-10 12:32N 51°20' E 003°11'0 0.0
2018-Nov-10 12:01N 51°20' E 003°11'0 0.0
2018-Nov-10 11:31N 51°20' E 003°11'0 0.0
2018-Nov-10 11:01N 51°20' E 003°11'0 0.0
2018-Nov-10 10:31N 51°20' E 003°11'0 0.0
2018-Nov-10 09:58N 51°20' E 003°11'0 0.0
2018-Nov-10 09:30N 51°20' E 003°11'0 0.0
2018-Nov-10 09:00N 51°20' E 003°11'0 0.0
2018-Nov-10 08:25N 51°20' E 003°11'1 2.7
2018-Nov-10 08:02N 51°21' E 003°12'815.2
2018-Nov-10 07:33N 51°25' E 003°02'816.2
2018-Nov-10 07:02N 51°29' E 002°51'816.6
2018-Nov-10 06:32N 51°35' E 002°42'815.5
2018-Nov-10 06:02N 51°43' E 002°38'915.0
2018-Nov-10 05:26N 51°52' E 002°34'615.1
2018-Nov-10 05:02N 51°57' E 002°29'714.1
2018-Nov-10 04:32N 52°03' E 002°25'713.6
2018-Nov-10 04:03N 52°10' E 002°22'713.5
2018-Nov-10 03:32N 52°16' E 002°18'713.3
2018-Nov-10 03:03N 52°22' E 002°14'713.2
2018-Nov-10 02:33N 52°28' E 002°08'713.2
2018-Nov-10 02:02N 52°34' E 002°04'713.2
2018-Nov-10 01:33N 52°40' E 001°58'713.5
2018-Nov-10 01:02N 52°45' E 001°51'815.0
2018-Nov-10 00:32N 52°50' E 001°42'815.4
2018-Nov-10 00:02N 52°55' E 001°32'815.9
2018-Nov-09 23:32N 52°59' E 001°21'816.8
2018-Nov-09 23:02N 53°01' E 001°07'816.6
2018-Nov-09 22:32N 53°07' E 000°57'916.6
2018-Nov-09 22:02N 53°13' E 000°47'1716.0
2018-Nov-09 20:59N 53°25' E 000°28'815.6
2018-Nov-09 20:31N 53°30' E 000°19'816.1
2018-Nov-09 20:02N 53°33' E 000°07'817.0
2018-Nov-09 19:33N 53°37' W 000°06'714.1
2018-Nov-09 19:02N 53°42' W 000°14'3 5.8
2018-Nov-09 18:33N 53°44' W 000°16'0 0.2
2018-Nov-09 18:03N 53°45' W 000°16'0 0.0
2018-Nov-09 17:31N 53°45' W 000°16'0 0.0
2018-Nov-09 17:01N 53°45' W 000°16'0 0.0
2018-Nov-09 16:31N 53°45' W 000°16'0 0.0
2018-Nov-09 16:01N 53°45' W 000°16'0 0.0
2018-Nov-09 15:30N 53°45' W 000°16'0 0.0
2018-Nov-09 15:00N 53°45' W 000°16'0 0.0
2018-Nov-09 14:30N 53°45' W 000°16'0 0.0
2018-Nov-09 14:00N 53°45' W 000°16'0 0.0
2018-Nov-09 13:33N 53°45' W 000°16'0 0.0
2018-Nov-09 13:02N 53°45' W 000°16'0 0.0
2018-Nov-09 12:32N 53°45' W 000°16'0 0.0
2018-Nov-09 12:02N 53°45' W 000°16'0 0.0
2018-Nov-09 11:32N 53°45' W 000°16'0 0.0
2018-Nov-09 11:01N 53°45' W 000°16'0 0.0
2018-Nov-09 10:31N 53°45' W 000°16'0 0.0
2018-Nov-09 10:01N 53°45' W 000°16'0 0.0
2018-Nov-09 09:31N 53°45' W 000°16'0 0.0
2018-Nov-09 09:01N 53°45' W 000°16'0 0.0
2018-Nov-09 08:31N 53°45' W 000°16'0 0.2
2018-Nov-09 08:02N 53°44' W 000°16'0 0.3
2018-Nov-09 07:32N 53°44' W 000°16'510.8
2018-Nov-09 07:02N 53°40' W 000°12'715.0
2018-Nov-09 06:32N 53°36' W 000°01'815.8
2018-Nov-09 06:02N 53°33' E 000°11'712.3
2018-Nov-09 05:30N 53°30' E 000°22'712.8
2018-Nov-09 04:56N 53°28' E 000°33'513.4
2018-Nov-09 04:32N 53°26' E 000°41'713.2
2018-Nov-09 04:00N 53°23' E 000°52'613.7
2018-Nov-09 03:33N 53°20' E 001°01'714.6
2018-Nov-09 03:03N 53°13' E 001°08'816.7
2018-Nov-09 02:33N 53°07' E 001°17'917.3
2018-Nov-09 02:02N 53°01' E 001°26'917.8
2018-Nov-09 01:32N 52°54' E 001°37'917.6
2018-Nov-09 01:02N 52°48' E 001°47'917.2
2018-Nov-09 00:32N 52°41' E 001°56'816.1
2018-Nov-09 00:02N 52°35' E 002°04'815.2
2018-Nov-08 23:32N 52°28' E 002°11'814.5
2018-Nov-08 22:59N 52°21' E 002°16'1214.0
2018-Nov-08 22:06N 52°10' E 002°24'2813.9
2018-Nov-08 20:06N 51°44' E 002°40'114.3
2018-Nov-08 20:02N 51°43' E 002°40'814.7
2018-Nov-08 19:28N 51°35' E 002°46'715.6
2018-Nov-08 19:02N 51°30' E 002°54'816.2
2018-Nov-08 18:32N 51°25' E 003°03'713.8
2018-Nov-08 18:02N 51°21' E 003°12'1 1.0
2018-Nov-08 17:31N 51°20' E 003°11'0 0.0
2018-Nov-08 17:01N 51°20' E 003°11'0 0.0
2018-Nov-08 16:31N 51°20' E 003°11'0 0.0
2018-Nov-08 16:00N 51°20' E 003°11'0 0.0
2018-Nov-08 15:30N 51°20' E 003°11'0 0.0
2018-Nov-08 15:00N 51°20' E 003°11'0 0.0
2018-Nov-08 14:30N 51°20' E 003°11'0 0.0
2018-Nov-08 14:02N 51°20' E 003°11'0 0.0
2018-Nov-08 13:29N 51°20' E 003°11'0 0.0
2018-Nov-08 13:02N 51°20' E 003°11'0 0.0
2018-Nov-08 12:29N 51°20' E 003°11'0 0.0
2018-Nov-08 12:02N 51°20' E 003°11'0 0.0
2018-Nov-08 11:31N 51°20' E 003°11'0 0.0
2018-Nov-08 11:01N 51°20' E 003°11'0 0.0
2018-Nov-08 10:31N 51°20' E 003°11'0 0.0
2018-Nov-08 10:01N 51°20' E 003°11'0 0.0
2018-Nov-08 09:31N 51°20' E 003°11'0 0.0
2018-Nov-08 09:00N 51°20' E 003°11'0 0.0
2018-Nov-08 08:27N 51°20' E 003°11'0 0.0
2018-Nov-08 08:00N 51°20' E 003°11'1 3.1
2018-Nov-08 07:33N 51°22' E 003°11'714.4
2018-Nov-08 07:02N 51°25' E 003°01'713.8
2018-Nov-08 06:32N 51°29' E 002°52'1113.5
2018-Nov-08 05:43N 51°37' E 002°40'313.6
2018-Nov-08 05:31N 51°40' E 002°39'1115.3
2018-Nov-08 04:50N 51°49' E 002°32'516.6
2018-Nov-08 04:31N 51°54' E 002°29'1016.3
2018-Nov-08 03:54N 52°04' E 002°24'1616.1
2018-Nov-08 02:56N 52°18' E 002°15'715.9
2018-Nov-08 02:28N 52°25' E 002°11'715.3
2018-Nov-08 02:02N 52°31' E 002°07'815.1
2018-Nov-08 01:32N 52°38' E 002°01'815.0
2018-Nov-08 01:03N 52°44' E 001°53'515.1
2018-Nov-08 00:43N 52°47' E 001°47'315.7
2018-Nov-08 00:32N 52°49' E 001°43'115.6
2018-Nov-08 00:29N 52°49' E 001°42'715.6
2018-Nov-08 00:02N 52°54' E 001°34'815.5
2018-Nov-07 23:32N 52°58' E 001°23'816.2
2018-Nov-07 23:02N 53°01' E 001°11'816.3
2018-Nov-07 22:32N 53°05' E 000°59'815.9
2018-Nov-07 22:02N 53°11' E 000°50'1815.3
2018-Nov-07 20:51N 53°24' E 000°29'515.0
2018-Nov-07 20:32N 53°28' E 000°24'815.2
2018-Nov-07 20:02N 53°33' E 000°14'918.1
2018-Nov-07 19:32N 53°36' W 000°00'917.3
2018-Nov-07 19:02N 53°40' W 000°13'5 9.4
2018-Nov-07 18:32N 53°44' W 000°16'0 0.2
2018-Nov-07 18:02N 53°45' W 000°16'0 0.0
2018-Nov-07 17:30N 53°45' W 000°16'0 0.0
2018-Nov-07 17:00N 53°45' W 000°16'0 0.0
2018-Nov-07 16:30N 53°45' W 000°16'0 0.0
2018-Nov-07 16:00N 53°45' W 000°16'0 0.0
2018-Nov-07 15:30N 53°45' W 000°16'0 0.0
2018-Nov-07 15:02N 53°45' W 000°16'0 0.0
2018-Nov-07 14:32N 53°45' W 000°16'0 0.0
2018-Nov-07 14:02N 53°45' W 000°16'0 0.0
2018-Nov-07 13:32N 53°45' W 000°16'0 0.0
2018-Nov-07 13:01N 53°45' W 000°16'0 0.0
2018-Nov-07 12:31N 53°45' W 000°16'0 0.0
2018-Nov-07 12:01N 53°45' W 000°16'0 0.0
2018-Nov-07 11:31N 53°45' W 000°16'0 0.0
2018-Nov-07 11:01N 53°45' W 000°16'0 0.0
2018-Nov-07 10:30N 53°45' W 000°16'0 0.0
2018-Nov-07 10:00N 53°45' W 000°16'0 0.0
2018-Nov-07 09:30N 53°45' W 000°16'0 0.0
2018-Nov-07 09:00N 53°45' W 000°16'0 0.0
2018-Nov-07 08:32N 53°45' W 000°16'0 0.2
2018-Nov-07 08:02N 53°44' W 000°16'1 1.7
2018-Nov-07 07:32N 53°44' W 000°16'612.8
2018-Nov-07 07:02N 53°38' W 000°10'713.8
2018-Nov-07 06:32N 53°35' E 000°01'713.3
2018-Nov-07 06:02N 53°33' E 000°11'612.9
2018-Nov-07 05:32N 53°31' E 000°21'1913.8
2018-Nov-07 04:12N 53°23' E 000°50'7315.6
2018-Nov-06 23:30N 52°28' E 002°09'3913.7
2018-Nov-06 20:38N 51°52' E 002°36'314.0
2018-Nov-06 20:24N 51°49' E 002°38'813.9
2018-Nov-06 19:49N 51°41' E 002°42'514.5
2018-Nov-06 19:30N 51°37' E 002°45'715.0
2018-Nov-06 19:03N 51°32' E 002°51'115.1
2018-Nov-06 19:00N 51°31' E 002°52'815.4
2018-Nov-06 18:30N 51°26' E 003°00'715.6
2018-Nov-06 18:03N 51°23' E 003°10'115.7
2018-Nov-06 18:00N 51°22' E 003°11'2 3.2
2018-Nov-06 17:29N 51°20' E 003°11'0 0.0
2018-Nov-06 17:02N 51°20' E 003°11'0 0.0
2018-Nov-06 16:59N 51°20' E 003°11'0 0.0
2018-Nov-06 16:29N 51°20' E 003°11'0 0.0
2018-Nov-06 16:02N 51°20' E 003°11'0 0.0
2018-Nov-06 15:55N 51°20' E 003°11'0 0.0
2018-Nov-06 15:28N 51°20' E 003°11'0 0.0
2018-Nov-06 15:01N 51°20' E 003°11'0 0.0
2018-Nov-06 14:58N 51°20' E 003°11'0 0.0
2018-Nov-06 14:28N 51°20' E 003°11'0 0.0
2018-Nov-06 14:01N 51°20' E 003°11'0 0.0
2018-Nov-06 13:55N 51°20' E 003°11'0 0.0
2018-Nov-06 13:30N 51°20' E 003°11'0 0.0
2018-Nov-06 13:03N 51°20' E 003°11'0 0.0
2018-Nov-06 13:00N 51°20' E 003°11'0 0.0
2018-Nov-06 12:30N 51°20' E 003°11'0 0.0
2018-Nov-06 12:03N 51°20' E 003°11'0 0.0
2018-Nov-06 12:00N 51°20' E 003°11'0 0.0
2018-Nov-06 11:30N 51°20' E 003°11'0 0.0
2018-Nov-06 11:02N 51°20' E 003°11'0 0.0
2018-Nov-06 10:56N 51°20' E 003°11'0 0.0
2018-Nov-06 10:29N 51°20' E 003°11'0 0.0
2018-Nov-06 10:02N 51°20' E 003°11'0 0.0
2018-Nov-06 09:59N 51°20' E 003°11'0 0.0
2018-Nov-06 09:26N 51°20' E 003°11'0 0.0
2018-Nov-06 08:58N 51°20' E 003°11'0 0.0
2018-Nov-06 08:22N 51°20' E 003°11'0 0.0
2018-Nov-06 08:01N 51°20' E 003°11'0 0.0
2018-Nov-06 07:58N 51°20' E 003°11'2 3.4
2018-Nov-06 07:30N 51°22' E 003°11'714.9
2018-Nov-06 07:03N 51°25' E 003°02'115.3
2018-Nov-06 07:00N 51°25' E 003°01'815.4
2018-Nov-06 06:30N 51°30' E 002°51'715.5
2018-Nov-06 06:03N 51°35' E 002°43'115.9
2018-Nov-06 05:59N 51°36' E 002°41'815.8
2018-Nov-06 05:29N 51°43' E 002°38'716.3
2018-Nov-06 05:02N 51°50' E 002°34'016.1
2018-Nov-06 05:00N 51°51' E 002°34'1017.3
2018-Nov-06 04:27N 51°60' E 002°28'717.4
2018-Nov-06 04:03N 52°06' E 002°24'317.1
2018-Nov-06 03:53N 52°09' E 002°23'616.2
2018-Nov-06 03:30N 52°15' E 002°19'716.6
2018-Nov-06 03:03N 52°21' E 002°13'116.6
2018-Nov-06 03:00N 52°22' E 002°13'816.4
2018-Nov-06 02:30N 52°29' E 002°07'716.1
2018-Nov-06 02:03N 52°36' E 002°02'115.8
2018-Nov-06 02:00N 52°37' E 002°02'815.7
2018-Nov-06 01:30N 52°43' E 001°54'1515.4
2018-Nov-06 00:30N 52°55' E 001°38'1615.5
2018-Nov-05 23:30N 53°06' E 001°20'716.0
2018-Nov-05 23:03N 53°12' E 001°13'116.0
2018-Nov-05 23:00N 53°13' E 001°12'815.7
2018-Nov-05 22:30N 53°18' E 001°03'714.5
2018-Nov-05 22:03N 53°22' E 000°54'114.9
2018-Nov-05 22:00N 53°22' E 000°53'714.8
2018-Nov-05 21:30N 53°25' E 000°41'715.6
2018-Nov-05 21:03N 53°27' E 000°30'115.1
2018-Nov-05 20:59N 53°28' E 000°29'714.8
2018-Nov-05 20:29N 53°31' E 000°18'715.6
2018-Nov-05 20:03N 53°33' E 000°07'119.1
2018-Nov-05 20:00N 53°34' E 000°06'918.1
2018-Nov-05 19:30N 53°38' W 000°08'613.5
2018-Nov-05 19:03N 53°43' W 000°14'114.5
2018-Nov-05 19:00N 53°43' W 000°15'2 3.1
2018-Nov-05 18:30N 53°44' W 000°16'0 0.2
2018-Nov-05 18:02N 53°45' W 000°16'0 0.0
2018-Nov-05 17:59N 53°45' W 000°16'0 0.0
2018-Nov-05 17:28N 53°45' W 000°16'0 0.0
2018-Nov-05 17:01N 53°45' W 000°16'0 0.0
2018-Nov-05 16:58N 53°45' W 000°16'0 0.0
2018-Nov-05 16:28N 53°45' W 000°16'0 0.0
2018-Nov-05 16:01N 53°45' W 000°16'0 0.0
2018-Nov-05 15:58N 53°45' W 000°16'0 0.0
2018-Nov-05 15:30N 53°45' W 000°16'0 0.0
2018-Nov-05 15:03N 53°45' W 000°16'0 0.0
2018-Nov-05 15:00N 53°45' W 000°16'0 0.0
2018-Nov-05 14:30N 53°45' W 000°16'0 0.0
2018-Nov-05 14:03N 53°45' W 000°16'0 0.0
2018-Nov-05 13:30N 53°45' W 000°16'0 0.0
2018-Nov-05 13:02N 53°45' W 000°16'0 0.0
2018-Nov-05 12:59N 53°45' W 000°16'0 0.0
2018-Nov-05 12:29N 53°45' W 000°16'0 0.0
2018-Nov-05 12:02N 53°45' W 000°16'0 0.0
2018-Nov-05 11:59N 53°45' W 000°16'0 0.0
2018-Nov-05 11:29N 53°45' W 000°16'0 0.0
2018-Nov-05 11:02N 53°45' W 000°16'0 0.0
2018-Nov-05 10:59N 53°45' W 000°16'0 0.0
2018-Nov-05 10:28N 53°45' W 000°16'0 0.0
2018-Nov-05 10:01N 53°45' W 000°16'0 0.0
2018-Nov-05 09:58N 53°45' W 000°16'0 0.0
2018-Nov-05 09:28N 53°45' W 000°16'0 0.0
2018-Nov-05 09:01N 53°45' W 000°16'0 0.1
2018-Nov-05 08:58N 53°45' W 000°16'0 0.0
2018-Nov-05 08:30N 53°45' W 000°16'0 0.0
2018-Nov-05 08:03N 53°45' W 000°16'0 0.0
2018-Nov-05 08:00N 53°45' W 000°16'0 0.2
2018-Nov-05 07:30N 53°44' W 000°16'0 0.3
2018-Nov-05 07:03N 53°44' W 000°16'0 3.2
2018-Nov-05 07:00N 53°44' W 000°16'611.1
2018-Nov-05 06:30N 53°39' W 000°12'613.1
2018-Nov-05 06:03N 53°36' W 000°03'114.0
2018-Nov-05 06:00N 53°36' W 000°02'713.6
2018-Nov-05 05:30N 53°33' E 000°08'614.3
2018-Nov-05 05:03N 53°31' E 000°19'115.4
2018-Nov-05 05:00N 53°31' E 000°20'815.2
2018-Nov-05 04:28N 53°25' E 000°29'5413.7
2018-Nov-05 00:31N 52°52' E 001°40'115.3
2018-Nov-05 00:28N 52°51' E 001°41'615.1
2018-Nov-05 00:03N 52°47' E 001°48'115.0
2018-Nov-04 23:58N 52°46' E 001°50'715.7
2018-Nov-04 23:30N 52°40' E 001°57'716.2
2018-Nov-04 23:03N 52°34' E 002°04'116.1
2018-Nov-04 23:00N 52°33' E 002°04'916.4
2018-Nov-04 22:28N 52°25' E 002°10'3416.1
2018-Nov-04 20:21N 51°54' E 002°32'1316.1
2018-Nov-04 19:33N 51°42' E 002°41'116.3
2018-Nov-04 19:28N 51°41' E 002°42'616.1
2018-Nov-04 19:03N 51°35' E 002°47'116.9
2018-Nov-04 18:59N 51°34' E 002°48'816.6
2018-Nov-04 18:30N 51°28' E 002°57'716.0
2018-Nov-04 18:03N 51°24' E 003°06'117.3
2018-Nov-04 18:00N 51°24' E 003°07'4 8.5
2018-Nov-04 17:30N 51°20' E 003°11'0 0.0
2018-Nov-04 16:59N 51°20' E 003°11'0 0.0
2018-Nov-04 16:29N 51°20' E 003°11'0 0.0
2018-Nov-04 16:02N 51°20' E 003°11'0 0.0
2018-Nov-04 15:59N 51°20' E 003°11'0 0.0
2018-Nov-04 15:29N 51°20' E 003°11'0 0.0
2018-Nov-04 15:01N 51°20' E 003°11'0 0.0
2018-Nov-04 14:58N 51°20' E 003°11'0 0.0
2018-Nov-04 14:28N 51°20' E 003°11'0 0.0
2018-Nov-04 14:01N 51°20' E 003°11'0 0.0
2018-Nov-04 13:58N 51°20' E 003°11'0 0.0
2018-Nov-04 13:28N 51°20' E 003°11'0 0.0
2018-Nov-04 13:01N 51°20' E 003°11'0 0.0
2018-Nov-04 12:58N 51°20' E 003°11'0 0.0
2018-Nov-04 12:30N 51°20' E 003°11'0 0.0
2018-Nov-04 12:03N 51°20' E 003°11'0 0.0
2018-Nov-04 12:00N 51°20' E 003°11'0 0.0
2018-Nov-04 11:30N 51°20' E 003°11'0 0.0
2018-Nov-04 11:03N 51°20' E 003°11'0 0.0
2018-Nov-04 11:00N 51°20' E 003°11'0 0.0
2018-Nov-04 10:29N 51°20' E 003°11'0 0.0
2018-Nov-04 10:02N 51°20' E 003°11'0 0.0
2018-Nov-04 09:59N 51°20' E 003°11'0 0.0
2018-Nov-04 09:29N 51°20' E 003°11'0 0.0
2018-Nov-04 09:02N 51°20' E 003°11'0 0.0
2018-Nov-04 08:56N 51°20' E 003°11'0 0.0
2018-Nov-04 08:29N 51°20' E 003°11'0 0.8
2018-Nov-04 08:03N 51°21' E 003°12'0 8.4
2018-Nov-04 08:01N 51°21' E 003°12'713.9
2018-Nov-04 07:30N 51°24' E 003°03'714.7
2018-Nov-04 07:03N 51°28' E 002°53'114.8
2018-Nov-04 07:00N 51°28' E 002°53'714.6
2018-Nov-04 06:30N 51°33' E 002°44'614.3
2018-Nov-04 06:03N 51°39' E 002°40'114.8
2018-Nov-04 06:00N 51°39' E 002°39'815.1
2018-Nov-04 05:30N 51°47' E 002°37'715.5
2018-Nov-04 05:03N 51°54' E 002°34'115.8
2018-Nov-04 05:00N 51°54' E 002°33'815.7
2018-Nov-04 04:29N 52°02' E 002°29'715.4
2018-Nov-04 04:03N 52°08' E 002°24'115.9
2018-Nov-04 04:00N 52°09' E 002°23'815.3
2018-Nov-04 03:29N 52°16' E 002°17'715.7
2018-Nov-04 03:03N 52°22' E 002°12'115.8
2018-Nov-04 03:00N 52°22' E 002°12'815.9
2018-Nov-04 02:30N 52°29' E 002°06'715.9
2018-Nov-04 02:03N 52°36' E 002°01'115.6
2018-Nov-04 02:00N 52°37' E 002°00'815.5
2018-Nov-04 01:31N 52°43' E 001°53'715.6
2018-Nov-04 01:03N 52°48' E 001°45'115.8
2018-Nov-04 01:00N 52°49' E 001°44'815.5
2018-Nov-04 00:30N 52°53' E 001°34'715.4
2018-Nov-04 00:03N 52°57' E 001°24'115.7
2018-Nov-04 00:00N 52°57' E 001°23'815.5
2018-Nov-03 23:30N 53°00' E 001°11'714.9
2018-Nov-03 23:03N 53°04' E 001°02'115.0
2018-Nov-03 23:00N 53°05' E 001°01'714.9
2018-Nov-03 22:30N 53°10' E 000°52'2914.5
2018-Nov-03 20:30N 53°31' E 000°19'614.6
2018-Nov-03 20:03N 53°33' E 000°08'116.9
2018-Nov-03 20:00N 53°33' E 000°07'816.6
2018-Nov-03 19:30N 53°37' W 000°06'612.5
2018-Nov-03 19:03N 53°40' W 000°13'115.8
2018-Nov-03 19:00N 53°41' W 000°14'4 7.5
2018-Nov-03 18:30N 53°44' W 000°16'0 0.3
2018-Nov-03 18:02N 53°45' W 000°16'0 1.3
2018-Nov-03 17:59N 53°45' W 000°16'0 0.0
2018-Nov-03 17:29N 53°45' W 000°16'0 0.0
2018-Nov-03 17:02N 53°45' W 000°16'0 0.0
2018-Nov-03 16:59N 53°45' W 000°16'0 0.0
2018-Nov-03 16:28N 53°45' W 000°16'0 0.0
2018-Nov-03 16:01N 53°45' W 000°16'0 0.0
2018-Nov-03 15:58N 53°45' W 000°16'0 0.0
2018-Nov-03 15:28N 53°45' W 000°16'0 0.0
2018-Nov-03 15:01N 53°45' W 000°16'0 0.0
2018-Nov-03 14:58N 53°45' W 000°16'0 0.0
2018-Nov-03 14:28N 53°45' W 000°16'0 0.0
2018-Nov-03 14:03N 53°45' W 000°16'0 0.0
2018-Nov-03 14:00N 53°45' W 000°16'0 0.0
2018-Nov-03 13:30N 53°45' W 000°16'0 0.0
2018-Nov-03 13:03N 53°45' W 000°16'0 0.0
2018-Nov-03 13:00N 53°45' W 000°16'0 0.0
2018-Nov-03 12:30N 53°45' W 000°16'0 0.0
2018-Nov-03 12:03N 53°45' W 000°16'0 0.0
2018-Nov-03 12:00N 53°45' W 000°16'0 0.0
2018-Nov-03 11:29N 53°45' W 000°16'0 0.0
2018-Nov-03 11:02N 53°45' W 000°16'0 0.0
2018-Nov-03 10:59N 53°45' W 000°16'0 0.3
2018-Nov-03 10:30N 53°44' W 000°16'0 0.3
2018-Nov-03 10:03N 53°44' W 000°17'0 0.4
2018-Nov-03 10:00N 53°44' W 000°17'0 0.0
2018-Nov-03 09:30N 53°44' W 000°17'0 0.0
2018-Nov-03 09:03N 53°44' W 000°17'0 0.1
2018-Nov-03 09:00N 53°44' W 000°17'0 0.3
2018-Nov-03 08:30N 53°44' W 000°17'1 2.2
2018-Nov-03 08:03N 53°44' W 000°15'0 9.9
2018-Nov-03 08:00N 53°43' W 000°15'611.3
2018-Nov-03 07:30N 53°38' W 000°10'510.1
2018-Nov-03 07:03N 53°36' W 000°04'112.1
2018-Nov-03 07:00N 53°36' W 000°03'612.6
2018-Nov-03 06:30N 53°34' E 000°07'613.0
2018-Nov-03 06:03N 53°33' E 000°17'113.4
2018-Nov-03 06:00N 53°33' E 000°18'712.2
2018-Nov-03 05:24N 53°30' E 000°29'412.7
2018-Nov-03 05:03N 53°28' E 000°36'212.9
2018-Nov-03 04:56N 53°27' E 000°39'713.6
2018-Nov-03 04:26N 53°24' E 000°49'513.4
2018-Nov-03 04:03N 53°22' E 000°56'113.3
2018-Nov-03 04:00N 53°22' E 000°57'713.6
2018-Nov-03 03:31N 53°17' E 001°05'613.7
2018-Nov-03 03:04N 53°12' E 001°12'113.9
2018-Nov-03 03:00N 53°12' E 001°13'714.2
2018-Nov-03 02:30N 53°07' E 001°21'714.9
2018-Nov-03 02:03N 53°02' E 001°28'114.4
2018-Nov-03 02:00N 53°01' E 001°29'714.4
2018-Nov-03 01:31N 52°56' E 001°37'714.9
2018-Nov-03 01:03N 52°50' E 001°44'115.2
2018-Nov-03 01:00N 52°50' E 001°45'815.4
2018-Nov-03 00:30N 52°44' E 001°53'716.2
2018-Nov-03 00:03N 52°38' E 001°60'116.1
2018-Nov-03 00:00N 52°37' E 002°01'816.3
2018-Nov-02 23:30N 52°31' E 002°08'916.5
2018-Nov-02 22:57N 52°22' E 002°13'4716.4
2018-Nov-02 20:04N 51°39' E 002°44'016.1
2018-Nov-02 20:02N 51°38' E 002°44'315.7
2018-Nov-02 19:49N 51°35' E 002°47'515.4
2018-Nov-02 19:30N 51°32' E 002°52'715.2
2018-Nov-02 19:03N 51°26' E 002°59'115.0
2018-Nov-02 19:00N 51°26' E 002°60'713.1
2018-Nov-02 18:30N 51°23' E 003°10'3 7.1
2018-Nov-02 18:03N 51°20' E 003°11'0 1.2
2018-Nov-02 18:00N 51°20' E 003°11'0 0.0
2018-Nov-02 17:29N 51°20' E 003°11'0 0.0
2018-Nov-02 16:56N 51°20' E 003°11'0 0.0
2018-Nov-02 16:29N 51°20' E 003°11'0 0.0
2018-Nov-02 16:02N 51°20' E 003°11'0 0.0
2018-Nov-02 15:59N 51°20' E 003°11'0 0.0
2018-Nov-02 15:28N 51°20' E 003°11'0 0.0
2018-Nov-02 15:01N 51°20' E 003°11'0 0.0
2018-Nov-02 14:58N 51°20' E 003°11'0 0.0
2018-Nov-02 14:01N 51°20' E 003°11'0 0.0
2018-Nov-02 13:58N 51°20' E 003°11'0 0.0
2018-Nov-02 13:28N 51°20' E 003°11'0 0.0
2018-Nov-02 13:03N 51°20' E 003°11'0 0.0
2018-Nov-02 13:00N 51°20' E 003°11'0 0.0
2018-Nov-02 12:30N 51°20' E 003°11'0 0.0
2018-Nov-02 12:03N 51°20' E 003°11'0 0.0
2018-Nov-02 12:00N 51°20' E 003°11'0 0.0
2018-Nov-02 11:30N 51°20' E 003°11'0 0.0
2018-Nov-02 11:02N 51°20' E 003°11'0 0.0
2018-Nov-02 11:00N 51°20' E 003°11'0 0.0
2018-Nov-02 10:29N 51°20' E 003°11'0 0.0
2018-Nov-02 10:02N 51°20' E 003°11'0 0.0
2018-Nov-02 09:59N 51°20' E 003°11'0 0.0
2018-Nov-02 09:29N 51°20' E 003°11'0 0.0
2018-Nov-02 08:59N 51°20' E 003°11'0 0.0
2018-Nov-02 08:28N 51°20' E 003°11'0 0.0
2018-Nov-02 08:02N 51°20' E 003°11'0 0.1
2018-Nov-02 08:01N 51°20' E 003°11'1 3.0
2018-Nov-02 07:30N 51°22' E 003°12'715.0
2018-Nov-02 07:03N 51°25' E 003°02'115.2
2018-Nov-02 07:00N 51°25' E 003°01'815.0
2018-Nov-02 06:30N 51°30' E 002°51'714.9
2018-Nov-02 06:02N 51°35' E 002°43'115.6
2018-Nov-02 06:00N 51°35' E 002°42'714.7
2018-Nov-02 05:29N 51°42' E 002°38'1115.2
2018-Nov-02 04:47N 51°52' E 002°33'415.4
2018-Nov-02 04:30N 51°56' E 002°30'715.6
2018-Nov-02 04:02N 52°03' E 002°26'115.9
2018-Nov-02 04:00N 52°04' E 002°26'1515.6
2018-Nov-02 03:02N 52°17' E 002°16'115.5
2018-Nov-02 02:59N 52°18' E 002°15'815.9
2018-Nov-02 02:30N 52°25' E 002°10'716.2
2018-Nov-02 02:03N 52°32' E 002°06'116.3
2018-Nov-02 02:00N 52°32' E 002°05'917.1
2018-Nov-02 01:30N 52°40' E 001°58'817.7
2018-Nov-02 01:03N 52°46' E 001°49'117.5
2018-Nov-02 01:00N 52°46' E 001°48'117.4
2018-Nov-02 00:56N 52°47' E 001°47'617.3
2018-Nov-02 00:36N 52°51' E 001°39'217.2
2018-Nov-02 00:30N 52°52' E 001°37'817.2
2018-Nov-02 00:03N 52°56' E 001°26'117.1
2018-Nov-02 00:00N 52°57' E 001°25'917.0
2018-Nov-01 23:30N 53°00' E 001°13'716.4
2018-Nov-01 23:03N 53°04' E 001°02'116.3
2018-Nov-01 23:00N 53°05' E 001°01'816.3
2018-Nov-01 22:30N 53°10' E 000°51'2216.5
2018-Nov-01 21:09N 53°26' E 000°25'216.5
2018-Nov-01 21:03N 53°28' E 000°23'115.9
2018-Nov-01 21:00N 53°28' E 000°22'815.5
2018-Nov-01 20:30N 53°33' E 000°12'614.2
2018-Nov-01 20:04N 53°35' E 000°02'114.8
2018-Nov-01 20:00N 53°35' E 000°01'713.7
2018-Nov-01 19:30N 53°38' W 000°10'612.9
2018-Nov-01 19:03N 53°43' W 000°15'0 9.9
2018-Nov-01 19:00N 53°44' W 000°15'1 2.3
2018-Nov-01 18:30N 53°44' W 000°16'0 0.3
2018-Nov-01 18:01N 53°45' W 000°16'0 0.0
2018-Nov-01 17:58N 53°45' W 000°16'0 0.0
2018-Nov-01 17:30N 53°45' W 000°16'0 0.0
2018-Nov-01 17:03N 53°45' W 000°16'0 0.1
2018-Nov-01 17:00N 53°45' W 000°16'0 0.0
2018-Nov-01 16:30N 53°45' W 000°16'0 0.0
2018-Nov-01 16:00N 53°45' W 000°16'0 0.0
2018-Nov-01 15:30N 53°45' W 000°16'0 0.0
2018-Nov-01 15:02N 53°45' W 000°16'0 0.0
2018-Nov-01 14:59N 53°45' W 000°16'0 0.0
2018-Nov-01 14:02N 53°45' W 000°16'0 0.0
2018-Nov-01 13:59N 53°45' W 000°16'0 0.0
2018-Nov-01 13:29N 53°45' W 000°16'0 0.0
2018-Nov-01 13:02N 53°45' W 000°16'0 0.0
2018-Nov-01 12:58N 53°45' W 000°16'0 0.0
2018-Nov-01 12:28N 53°45' W 000°16'0 0.0
2018-Nov-01 12:01N 53°45' W 000°16'0 0.1
2018-Nov-01 11:58N 53°45' W 000°16'0 0.0
2018-Nov-01 11:28N 53°45' W 000°16'0 0.0
2018-Nov-01 11:01N 53°45' W 000°16'0 0.0
2018-Nov-01 10:58N 53°45' W 000°16'0 0.0
2018-Nov-01 10:30N 53°45' W 000°16'0 0.0
2018-Nov-01 10:03N 53°45' W 000°16'0 0.0
2018-Nov-01 10:00N 53°45' W 000°16'0 0.0
2018-Nov-01 09:30N 53°45' W 000°16'0 0.0
2018-Nov-01 09:03N 53°45' W 000°16'0 0.0
2018-Nov-01 09:00N 53°45' W 000°16'0 0.0
2018-Nov-01 08:30N 53°45' W 000°16'0 0.2
2018-Nov-01 08:03N 53°44' W 000°16'0 0.1
2018-Nov-01 08:01N 53°44' W 000°16'0 0.4
2018-Nov-01 07:30N 53°44' W 000°16'613.8
2018-Nov-01 07:03N 53°39' W 000°12'113.9
2018-Nov-01 07:00N 53°38' W 000°11'612.0
2018-Nov-01 06:31N 53°36' W 000°02'715.0
2018-Nov-01 06:03N 53°33' E 000°09'114.7
2018-Nov-01 06:00N 53°33' E 000°10'714.4
2018-Nov-01 05:30N 53°33' E 000°22'2014.8
2018-Nov-01 04:07N 53°22' E 000°52'115.0
2018-Nov-01 04:03N 53°22' E 000°53'115.2
2018-Nov-01 04:00N 53°22' E 000°54'815.1
2018-Nov-01 03:31N 53°17' E 001°04'715.3
2018-Nov-01 03:03N 53°11' E 001°11'115.1
2018-Nov-01 03:01N 53°11' E 001°12'  
Track history (hours):
 
Tides and Currents Weather Stations Pressure Air Temp Water Temp Dewpoint Dewpoint Depression Visibility Wind Speed Wind Dir Waves Ship Positions

Pride Of Bruges

Operator: P&O Ferries

Last reported at 2018-Nov-11 02:32 UTC. Time now 2018-Nov-18 17:18 UTC.
Position N 53°00' E 001°29'.

Length 180 m; draft 5.7 m.

Type: Ship. MMSI: 244387000.

Date/timePositionNaut miles runAvg speedWind from/ knotsBaromVisibWave heightAir tempDewpointWater temp
2018-Nov-11 02:32N 53°00' E 001°29'816.2
2018-Nov-11 02:02N 52°54' E 001°38'815.4
2018-Nov-11 01:32N 52°49' E 001°47'714.5
2018-Nov-11 01:02N 52°43' E 001°54'713.8
2018-Nov-11 00:32N 52°37' E 002°00'713.8
2018-Nov-11 00:02N 52°31' E 002°05'713.2
2018-Nov-10 23:33N 52°25' E 002°10'612.8
2018-Nov-10 23:02N 52°19' E 002°14'612.4
2018-Nov-10 22:32N 52°13' E 002°18'612.3
2018-Nov-10 22:02N 52°08' E 002°23'612.3
2018-Nov-10 21:32N 52°02' E 002°27'812.5
2018-Nov-10 20:55N 51°55' E 002°32'1513.1
2018-Nov-10 19:49N 51°42' E 002°41'414.1
2018-Nov-10 19:31N 51°38' E 002°44'714.3
2018-Nov-10 19:02N 51°33' E 002°51'714.6
2018-Nov-10 18:33N 51°27' E 002°57'714.7
2018-Nov-10 18:02N 51°24' E 003°08'4 7.8
2018-Nov-10 17:32N 51°20' E 003°11'0 0.0
2018-Nov-10 17:01N 51°20' E 003°11'0 0.0
2018-Nov-10 16:30N 51°20' E 003°11'0 0.0
2018-Nov-10 16:00N 51°20' E 003°11'0 0.0
2018-Nov-10 15:30N 51°20' E 003°11'0 0.0
2018-Nov-10 15:00N 51°20' E 003°11'0 0.0
2018-Nov-10 14:32N 51°20' E 003°11'0 0.0
2018-Nov-10 14:02N 51°20' E 003°11'0 0.0
2018-Nov-10 13:32N 51°20' E 003°11'0 0.0
2018-Nov-10 13:02N 51°20' E 003°11'0 0.0
2018-Nov-10 12:32N 51°20' E 003°11'0 0.0
2018-Nov-10 12:01N 51°20' E 003°11'0 0.0
2018-Nov-10 11:31N 51°20' E 003°11'0 0.0
2018-Nov-10 11:01N 51°20' E 003°11'0 0.0
2018-Nov-10 10:31N 51°20' E 003°11'0 0.0
2018-Nov-10 09:58N 51°20' E 003°11'0 0.0
2018-Nov-10 09:30N 51°20' E 003°11'0 0.0
2018-Nov-10 09:00N 51°20' E 003°11'0 0.0
2018-Nov-10 08:25N 51°20' E 003°11'1 2.7
2018-Nov-10 08:02N 51°21' E 003°12'815.2
2018-Nov-10 07:33N 51°25' E 003°02'816.2
2018-Nov-10 07:02N 51°29' E 002°51'816.6
2018-Nov-10 06:32N 51°35' E 002°42'815.5
2018-Nov-10 06:02N 51°43' E 002°38'915.0
2018-Nov-10 05:26N 51°52' E 002°34'615.1
2018-Nov-10 05:02N 51°57' E 002°29'714.1
2018-Nov-10 04:32N 52°03' E 002°25'713.6
2018-Nov-10 04:03N 52°10' E 002°22'713.5
2018-Nov-10 03:32N 52°16' E 002°18'713.3
2018-Nov-10 03:03N 52°22' E 002°14'713.2
2018-Nov-10 02:33N 52°28' E 002°08'713.2
2018-Nov-10 02:02N 52°34' E 002°04'713.2
2018-Nov-10 01:33N 52°40' E 001°58'713.5
2018-Nov-10 01:02N 52°45' E 001°51'815.0
2018-Nov-10 00:32N 52°50' E 001°42'815.4
2018-Nov-10 00:02N 52°55' E 001°32'815.9
2018-Nov-09 23:32N 52°59' E 001°21'816.8
2018-Nov-09 23:02N 53°01' E 001°07'816.6
2018-Nov-09 22:32N 53°07' E 000°57'916.6
2018-Nov-09 22:02N 53°13' E 000°47'1716.0
2018-Nov-09 20:59N 53°25' E 000°28'815.6
2018-Nov-09 20:31N 53°30' E 000°19'816.1
2018-Nov-09 20:02N 53°33' E 000°07'817.0
2018-Nov-09 19:33N 53°37' W 000°06'714.1
2018-Nov-09 19:02N 53°42' W 000°14'3 5.8
2018-Nov-09 18:33N 53°44' W 000°16'0 0.2
2018-Nov-09 18:03N 53°45' W 000°16'0 0.0
2018-Nov-09 17:31N 53°45' W 000°16'0 0.0
2018-Nov-09 17:01N 53°45' W 000°16'0 0.0
2018-Nov-09 16:31N 53°45' W 000°16'0 0.0
2018-Nov-09 16:01N 53°45' W 000°16'0 0.0
2018-Nov-09 15:30N 53°45' W 000°16'0 0.0
2018-Nov-09 15:00N 53°45' W 000°16'0 0.0
2018-Nov-09 14:30N 53°45' W 000°16'0 0.0
2018-Nov-09 14:00N 53°45' W 000°16'0 0.0
2018-Nov-09 13:33N 53°45' W 000°16'0 0.0
2018-Nov-09 13:02N 53°45' W 000°16'0 0.0
2018-Nov-09 12:32N 53°45' W 000°16'0 0.0
2018-Nov-09 12:02N 53°45' W 000°16'0 0.0
2018-Nov-09 11:32N 53°45' W 000°16'0 0.0
2018-Nov-09 11:01N 53°45' W 000°16'0 0.0
2018-Nov-09 10:31N 53°45' W 000°16'0 0.0
2018-Nov-09 10:01N 53°45' W 000°16'0 0.0
2018-Nov-09 09:31N 53°45' W 000°16'0 0.0
2018-Nov-09 09:01N 53°45' W 000°16'0 0.0
2018-Nov-09 08:31N 53°45' W 000°16'0 0.2
2018-Nov-09 08:02N 53°44' W 000°16'0 0.3
2018-Nov-09 07:32N 53°44' W 000°16'510.8
2018-Nov-09 07:02N 53°40' W 000°12'715.0
2018-Nov-09 06:32N 53°36' W 000°01'815.8
2018-Nov-09 06:02N 53°33' E 000°11'712.3
2018-Nov-09 05:30N 53°30' E 000°22'712.8
2018-Nov-09 04:56N 53°28' E 000°33'513.4
2018-Nov-09 04:32N 53°26' E 000°41'713.2
2018-Nov-09 04:00N 53°23' E 000°52'613.7
2018-Nov-09 03:33N 53°20' E 001°01'714.6
2018-Nov-09 03:03N 53°13' E 001°08'816.7
2018-Nov-09 02:33N 53°07' E 001°17'917.3
2018-Nov-09 02:02N 53°01' E 001°26'917.8
2018-Nov-09 01:32N 52°54' E 001°37'917.6
2018-Nov-09 01:02N 52°48' E 001°47'917.2
2018-Nov-09 00:32N 52°41' E 001°56'816.1
2018-Nov-09 00:02N 52°35' E 002°04'815.2
2018-Nov-08 23:32N 52°28' E 002°11'814.5
2018-Nov-08 22:59N 52°21' E 002°16'1214.0
2018-Nov-08 22:06N 52°10' E 002°24'2813.9
2018-Nov-08 20:06N 51°44' E 002°40'114.3
2018-Nov-08 20:02N 51°43' E 002°40'814.7
2018-Nov-08 19:28N 51°35' E 002°46'715.6
2018-Nov-08 19:02N 51°30' E 002°54'816.2
2018-Nov-08 18:32N 51°25' E 003°03'713.8
2018-Nov-08 18:02N 51°21' E 003°12'1 1.0
2018-Nov-08 17:31N 51°20' E 003°11'0 0.0
2018-Nov-08 17:01N 51°20' E 003°11'0 0.0
2018-Nov-08 16:31N 51°20' E 003°11'0 0.0
2018-Nov-08 16:00N 51°20' E 003°11'0 0.0
2018-Nov-08 15:30N 51°20' E 003°11'0 0.0
2018-Nov-08 15:00N 51°20' E 003°11'0 0.0
2018-Nov-08 14:30N 51°20' E 003°11'0 0.0
2018-Nov-08 14:02N 51°20' E 003°11'0 0.0
2018-Nov-08 13:29N 51°20' E 003°11'0 0.0
2018-Nov-08 13:02N 51°20' E 003°11'0 0.0
2018-Nov-08 12:29N 51°20' E 003°11'0 0.0
2018-Nov-08 12:02N 51°20' E 003°11'0 0.0
2018-Nov-08 11:31N 51°20' E 003°11'0 0.0
2018-Nov-08 11:01N 51°20' E 003°11'0 0.0
2018-Nov-08 10:31N 51°20' E 003°11'0 0.0
2018-Nov-08 10:01N 51°20' E 003°11'0 0.0
2018-Nov-08 09:31N 51°20' E 003°11'0 0.0
2018-Nov-08 09:00N 51°20' E 003°11'0 0.0
2018-Nov-08 08:27N 51°20' E 003°11'0 0.0
2018-Nov-08 08:00N 51°20' E 003°11'1 3.1
2018-Nov-08 07:33N 51°22' E 003°11'714.4
2018-Nov-08 07:02N 51°25' E 003°01'713.8
2018-Nov-08 06:32N 51°29' E 002°52'1113.5
2018-Nov-08 05:43N 51°37' E 002°40'313.6
2018-Nov-08 05:31N 51°40' E 002°39'1115.3
2018-Nov-08 04:50N 51°49' E 002°32'516.6
2018-Nov-08 04:31N 51°54' E 002°29'1016.3
2018-Nov-08 03:54N 52°04' E 002°24'1616.1
2018-Nov-08 02:56N 52°18' E 002°15'715.9
2018-Nov-08 02:28N 52°25' E 002°11'715.3
2018-Nov-08 02:02N 52°31' E 002°07'815.1
2018-Nov-08 01:32N 52°38' E 002°01'815.0
2018-Nov-08 01:03N 52°44' E 001°53'515.1
2018-Nov-08 00:43N 52°47' E 001°47'315.7
2018-Nov-08 00:32N 52°49' E 001°43'115.6
2018-Nov-08 00:29N 52°49' E 001°42'715.6
2018-Nov-08 00:02N 52°54' E 001°34'815.5
2018-Nov-07 23:32N 52°58' E 001°23'816.2
2018-Nov-07 23:02N 53°01' E 001°11'816.3
2018-Nov-07 22:32N 53°05' E 000°59'815.9
2018-Nov-07 22:02N 53°11' E 000°50'1815.3
2018-Nov-07 20:51N 53°24' E 000°29'515.0
2018-Nov-07 20:32N 53°28' E 000°24'815.2
2018-Nov-07 20:02N 53°33' E 000°14'918.1
2018-Nov-07 19:32N 53°36' W 000°00'917.3
2018-Nov-07 19:02N 53°40' W 000°13'5 9.4
2018-Nov-07 18:32N 53°44' W 000°16'0 0.2
2018-Nov-07 18:02N 53°45' W 000°16'0 0.0
2018-Nov-07 17:30N 53°45' W 000°16'0 0.0
2018-Nov-07 17:00N 53°45' W 000°16'0 0.0
2018-Nov-07 16:30N 53°45' W 000°16'0 0.0
2018-Nov-07 16:00N 53°45' W 000°16'0 0.0
2018-Nov-07 15:30N 53°45' W 000°16'0 0.0
2018-Nov-07 15:02N 53°45' W 000°16'0 0.0
2018-Nov-07 14:32N 53°45' W 000°16'0 0.0
2018-Nov-07 14:02N 53°45' W 000°16'0 0.0
2018-Nov-07 13:32N 53°45' W 000°16'0 0.0
2018-Nov-07 13:01N 53°45' W 000°16'0 0.0
2018-Nov-07 12:31N 53°45' W 000°16'0 0.0
2018-Nov-07 12:01N 53°45' W 000°16'0 0.0
2018-Nov-07 11:31N 53°45' W 000°16'0 0.0
2018-Nov-07 11:01N 53°45' W 000°16'0 0.0
2018-Nov-07 10:30N 53°45' W 000°16'0 0.0
2018-Nov-07 10:00N 53°45' W 000°16'0 0.0
2018-Nov-07 09:30N 53°45' W 000°16'0 0.0
2018-Nov-07 09:00N 53°45' W 000°16'0 0.0
2018-Nov-07 08:32N 53°45' W 000°16'0 0.2
2018-Nov-07 08:02N 53°44' W 000°16'1 1.7
2018-Nov-07 07:32N 53°44' W 000°16'612.8
2018-Nov-07 07:02N 53°38' W 000°10'713.8
2018-Nov-07 06:32N 53°35' E 000°01'713.3
2018-Nov-07 06:02N 53°33' E 000°11'612.9
2018-Nov-07 05:32N 53°31' E 000°21'1913.8
2018-Nov-07 04:12N 53°23' E 000°50'7315.6
2018-Nov-06 23:30N 52°28' E 002°09'3913.7
2018-Nov-06 20:38N 51°52' E 002°36'314.0
2018-Nov-06 20:24N 51°49' E 002°38'813.9
2018-Nov-06 19:49N 51°41' E 002°42'514.5
2018-Nov-06 19:30N 51°37' E 002°45'715.0
2018-Nov-06 19:03N 51°32' E 002°51'115.1
2018-Nov-06 19:00N 51°31' E 002°52'815.4
2018-Nov-06 18:30N 51°26' E 003°00'715.6
2018-Nov-06 18:03N 51°23' E 003°10'115.7
2018-Nov-06 18:00N 51°22' E 003°11'2 3.2
2018-Nov-06 17:29N 51°20' E 003°11'0 0.0
2018-Nov-06 17:02N 51°20' E 003°11'0 0.0
2018-Nov-06 16:59N 51°20' E 003°11'0 0.0
2018-Nov-06 16:29N 51°20' E 003°11'0 0.0
2018-Nov-06 16:02N 51°20' E 003°11'0 0.0
2018-Nov-06 15:55N 51°20' E 003°11'0 0.0
2018-Nov-06 15:28N 51°20' E 003°11'0 0.0
2018-Nov-06 15:01N 51°20' E 003°11'0 0.0
2018-Nov-06 14:58N 51°20' E 003°11'0 0.0
2018-Nov-06 14:28N 51°20' E 003°11'0 0.0
2018-Nov-06 14:01N 51°20' E 003°11'0 0.0
2018-Nov-06 13:55N 51°20' E 003°11'0 0.0
2018-Nov-06 13:30N 51°20' E 003°11'0 0.0
2018-Nov-06 13:03N 51°20' E 003°11'0 0.0
2018-Nov-06 13:00N 51°20' E 003°11'0 0.0
2018-Nov-06 12:30N 51°20' E 003°11'0 0.0
2018-Nov-06 12:03N 51°20' E 003°11'0 0.0
2018-Nov-06 12:00N 51°20' E 003°11'0 0.0
2018-Nov-06 11:30N 51°20' E 003°11'0 0.0
2018-Nov-06 11:02N 51°20' E 003°11'0 0.0
2018-Nov-06 10:56N 51°20' E 003°11'0 0.0
2018-Nov-06 10:29N 51°20' E 003°11'0 0.0
2018-Nov-06 10:02N 51°20' E 003°11'0 0.0
2018-Nov-06 09:59N 51°20' E 003°11'0 0.0
2018-Nov-06 09:26N 51°20' E 003°11'0 0.0
2018-Nov-06 08:58N 51°20' E 003°11'0 0.0
2018-Nov-06 08:22N 51°20' E 003°11'0 0.0
2018-Nov-06 08:01N 51°20' E 003°11'0 0.0
2018-Nov-06 07:58N 51°20' E 003°11'2 3.4
2018-Nov-06 07:30N 51°22' E 003°11'714.9
2018-Nov-06 07:03N 51°25' E 003°02'115.3
2018-Nov-06 07:00N 51°25' E 003°01'815.4
2018-Nov-06 06:30N 51°30' E 002°51'715.5
2018-Nov-06 06:03N 51°35' E 002°43'115.9
2018-Nov-06 05:59N 51°36' E 002°41'815.8
2018-Nov-06 05:29N 51°43' E 002°38'716.3
2018-Nov-06 05:02N 51°50' E 002°34'016.1
2018-Nov-06 05:00N 51°51' E 002°34'1017.3
2018-Nov-06 04:27N 51°60' E 002°28'717.4
2018-Nov-06 04:03N 52°06' E 002°24'317.1
2018-Nov-06 03:53N 52°09' E 002°23'616.2
2018-Nov-06 03:30N 52°15' E 002°19'716.6
2018-Nov-06 03:03N 52°21' E 002°13'116.6
2018-Nov-06 03:00N 52°22' E 002°13'816.4
2018-Nov-06 02:30N 52°29' E 002°07'716.1
2018-Nov-06 02:03N 52°36' E 002°02'115.8
2018-Nov-06 02:00N 52°37' E 002°02'815.7
2018-Nov-06 01:30N 52°43' E 001°54'1515.4
2018-Nov-06 00:30N 52°55' E 001°38'1615.5
2018-Nov-05 23:30N 53°06' E 001°20'716.0
2018-Nov-05 23:03N 53°12' E 001°13'116.0
2018-Nov-05 23:00N 53°13' E 001°12'815.7
2018-Nov-05 22:30N 53°18' E 001°03'714.5
2018-Nov-05 22:03N 53°22' E 000°54'114.9
2018-Nov-05 22:00N 53°22' E 000°53'714.8
2018-Nov-05 21:30N 53°25' E 000°41'715.6
2018-Nov-05 21:03N 53°27' E 000°30'115.1
2018-Nov-05 20:59N 53°28' E 000°29'714.8
2018-Nov-05 20:29N 53°31' E 000°18'715.6
2018-Nov-05 20:03N 53°33' E 000°07'119.1
2018-Nov-05 20:00N 53°34' E 000°06'918.1
2018-Nov-05 19:30N 53°38' W 000°08'613.5
2018-Nov-05 19:03N 53°43' W 000°14'114.5
2018-Nov-05 19:00N 53°43' W 000°15'2 3.1
2018-Nov-05 18:30N 53°44' W 000°16'0 0.2
2018-Nov-05 18:02N 53°45' W 000°16'0 0.0
2018-Nov-05 17:59N 53°45' W 000°16'0 0.0
2018-Nov-05 17:28N 53°45' W 000°16'0 0.0
2018-Nov-05 17:01N 53°45' W 000°16'0 0.0
2018-Nov-05 16:58N 53°45' W 000°16'0 0.0
2018-Nov-05 16:28N 53°45' W 000°16'0 0.0
2018-Nov-05 16:01N 53°45' W 000°16'0 0.0
2018-Nov-05 15:58N 53°45' W 000°16'0 0.0
2018-Nov-05 15:30N 53°45' W 000°16'0 0.0
2018-Nov-05 15:03N 53°45' W 000°16'0 0.0
2018-Nov-05 15:00N 53°45' W 000°16'0 0.0
2018-Nov-05 14:30N 53°45' W 000°16'0 0.0
2018-Nov-05 14:03N 53°45' W 000°16'0 0.0
2018-Nov-05 13:30N 53°45' W 000°16'0 0.0
2018-Nov-05 13:02N 53°45' W 000°16'0 0.0
2018-Nov-05 12:59N 53°45' W 000°16'0 0.0
2018-Nov-05 12:29N 53°45' W 000°16'0 0.0
2018-Nov-05 12:02N 53°45' W 000°16'0 0.0
2018-Nov-05 11:59N 53°45' W 000°16'0 0.0
2018-Nov-05 11:29N 53°45' W 000°16'0 0.0
2018-Nov-05 11:02N 53°45' W 000°16'0 0.0
2018-Nov-05 10:59N 53°45' W 000°16'0 0.0
2018-Nov-05 10:28N 53°45' W 000°16'0 0.0
2018-Nov-05 10:01N 53°45' W 000°16'0 0.0
2018-Nov-05 09:58N 53°45' W 000°16'0 0.0
2018-Nov-05 09:28N 53°45' W 000°16'0 0.0
2018-Nov-05 09:01N 53°45' W 000°16'0 0.1
2018-Nov-05 08:58N 53°45' W 000°16'0 0.0
2018-Nov-05 08:30N 53°45' W 000°16'0 0.0
2018-Nov-05 08:03N 53°45' W 000°16'0 0.0
2018-Nov-05 08:00N 53°45' W 000°16'0 0.2
2018-Nov-05 07:30N 53°44' W 000°16'0 0.3
2018-Nov-05 07:03N 53°44' W 000°16'0 3.2
2018-Nov-05 07:00N 53°44' W 000°16'611.1
2018-Nov-05 06:30N 53°39' W 000°12'613.1
2018-Nov-05 06:03N 53°36' W 000°03'114.0
2018-Nov-05 06:00N 53°36' W 000°02'713.6
2018-Nov-05 05:30N 53°33' E 000°08'614.3
2018-Nov-05 05:03N 53°31' E 000°19'115.4
2018-Nov-05 05:00N 53°31' E 000°20'815.2
2018-Nov-05 04:28N 53°25' E 000°29'5413.7
2018-Nov-05 00:31N 52°52' E 001°40'115.3
2018-Nov-05 00:28N 52°51' E 001°41'615.1
2018-Nov-05 00:03N 52°47' E 001°48'115.0
2018-Nov-04 23:58N 52°46' E 001°50'715.7
2018-Nov-04 23:30N 52°40' E 001°57'716.2
2018-Nov-04 23:03N 52°34' E 002°04'116.1
2018-Nov-04 23:00N 52°33' E 002°04'916.4
2018-Nov-04 22:28N 52°25' E 002°10'3416.1
2018-Nov-04 20:21N 51°54' E 002°32'1316.1
2018-Nov-04 19:33N 51°42' E 002°41'116.3
2018-Nov-04 19:28N 51°41' E 002°42'616.1
2018-Nov-04 19:03N 51°35' E 002°47'116.9
2018-Nov-04 18:59N 51°34' E 002°48'816.6
2018-Nov-04 18:30N 51°28' E 002°57'716.0
2018-Nov-04 18:03N 51°24' E 003°06'117.3
2018-Nov-04 18:00N 51°24' E 003°07'4 8.5
2018-Nov-04 17:30N 51°20' E 003°11'0 0.0
2018-Nov-04 16:59N 51°20' E 003°11'0 0.0
2018-Nov-04 16:29N 51°20' E 003°11'0 0.0
2018-Nov-04 16:02N 51°20' E 003°11'0 0.0
2018-Nov-04 15:59N 51°20' E 003°11'0 0.0
2018-Nov-04 15:29N 51°20' E 003°11'0 0.0
2018-Nov-04 15:01N 51°20' E 003°11'0 0.0
2018-Nov-04 14:58N 51°20' E 003°11'0 0.0
2018-Nov-04 14:28N 51°20' E 003°11'0 0.0
2018-Nov-04 14:01N 51°20' E 003°11'0 0.0
2018-Nov-04 13:58N 51°20' E 003°11'0 0.0
2018-Nov-04 13:28N 51°20' E 003°11'0 0.0
2018-Nov-04 13:01N 51°20' E 003°11'0 0.0
2018-Nov-04 12:58N 51°20' E 003°11'0 0.0
2018-Nov-04 12:30N 51°20' E 003°11'0 0.0
2018-Nov-04 12:03N 51°20' E 003°11'0 0.0
2018-Nov-04 12:00N 51°20' E 003°11'0 0.0
2018-Nov-04 11:30N 51°20' E 003°11'0 0.0
2018-Nov-04 11:03N 51°20' E 003°11'0 0.0
2018-Nov-04 11:00N 51°20' E 003°11'0 0.0
2018-Nov-04 10:29N 51°20' E 003°11'0 0.0
2018-Nov-04 10:02N 51°20' E 003°11'0 0.0
2018-Nov-04 09:59N 51°20' E 003°11'0 0.0
2018-Nov-04 09:29N 51°20' E 003°11'0 0.0
2018-Nov-04 09:02N 51°20' E 003°11'0 0.0
2018-Nov-04 08:56N 51°20' E 003°11'0 0.0
2018-Nov-04 08:29N 51°20' E 003°11'0 0.8
2018-Nov-04 08:03N 51°21' E 003°12'0 8.4
2018-Nov-04 08:01N 51°21' E 003°12'713.9
2018-Nov-04 07:30N 51°24' E 003°03'714.7
2018-Nov-04 07:03N 51°28' E 002°53'114.8
2018-Nov-04 07:00N 51°28' E 002°53'714.6
2018-Nov-04 06:30N 51°33' E 002°44'614.3
2018-Nov-04 06:03N 51°39' E 002°40'114.8
2018-Nov-04 06:00N 51°39' E 002°39'815.1
2018-Nov-04 05:30N 51°47' E 002°37'715.5
2018-Nov-04 05:03N 51°54' E 002°34'115.8
2018-Nov-04 05:00N 51°54' E 002°33'815.7
2018-Nov-04 04:29N 52°02' E 002°29'715.4
2018-Nov-04 04:03N 52°08' E 002°24'115.9
2018-Nov-04 04:00N 52°09' E 002°23'815.3
2018-Nov-04 03:29N 52°16' E 002°17'715.7
2018-Nov-04 03:03N 52°22' E 002°12'115.8
2018-Nov-04 03:00N 52°22' E 002°12'815.9
2018-Nov-04 02:30N 52°29' E 002°06'715.9
2018-Nov-04 02:03N 52°36' E 002°01'115.6
2018-Nov-04 02:00N 52°37' E 002°00'815.5
2018-Nov-04 01:31N 52°43' E 001°53'715.6
2018-Nov-04 01:03N 52°48' E 001°45'115.8
2018-Nov-04 01:00N 52°49' E 001°44'815.5
2018-Nov-04 00:30N 52°53' E 001°34'715.4
2018-Nov-04 00:03N 52°57' E 001°24'115.7
2018-Nov-04 00:00N 52°57' E 001°23'815.5
2018-Nov-03 23:30N 53°00' E 001°11'714.9
2018-Nov-03 23:03N 53°04' E 001°02'115.0
2018-Nov-03 23:00N 53°05' E 001°01'714.9
2018-Nov-03 22:30N 53°10' E 000°52'2914.5
2018-Nov-03 20:30N 53°31' E 000°19'614.6
2018-Nov-03 20:03N 53°33' E 000°08'116.9
2018-Nov-03 20:00N 53°33' E 000°07'816.6
2018-Nov-03 19:30N 53°37' W 000°06'612.5
2018-Nov-03 19:03N 53°40' W 000°13'115.8
2018-Nov-03 19:00N 53°41' W 000°14'4 7.5
2018-Nov-03 18:30N 53°44' W 000°16'0 0.3
2018-Nov-03 18:02N 53°45' W 000°16'0 1.3
2018-Nov-03 17:59N 53°45' W 000°16'0 0.0
2018-Nov-03 17:29N 53°45' W 000°16'0 0.0
2018-Nov-03 17:02N 53°45' W 000°16'0 0.0
2018-Nov-03 16:59N 53°45' W 000°16'0 0.0
2018-Nov-03 16:28N 53°45' W 000°16'0 0.0
2018-Nov-03 16:01N 53°45' W 000°16'0 0.0
2018-Nov-03 15:58N 53°45' W 000°16'0 0.0
2018-Nov-03 15:28N 53°45' W 000°16'0 0.0
2018-Nov-03 15:01N 53°45' W 000°16'0 0.0
2018-Nov-03 14:58N 53°45' W 000°16'0 0.0
2018-Nov-03 14:28N 53°45' W 000°16'0 0.0
2018-Nov-03 14:03N 53°45' W 000°16'0 0.0
2018-Nov-03 14:00N 53°45' W 000°16'0 0.0
2018-Nov-03 13:30N 53°45' W 000°16'0 0.0
2018-Nov-03 13:03N 53°45' W 000°16'0 0.0
2018-Nov-03 13:00N 53°45' W 000°16'0 0.0
2018-Nov-03 12:30N 53°45' W 000°16'0 0.0
2018-Nov-03 12:03N 53°45' W 000°16'0 0.0
2018-Nov-03 12:00N 53°45' W 000°16'0 0.0
2018-Nov-03 11:29N 53°45' W 000°16'0 0.0
2018-Nov-03 11:02N 53°45' W 000°16'0 0.0
2018-Nov-03 10:59N 53°45' W 000°16'0 0.3
2018-Nov-03 10:30N 53°44' W 000°16'0 0.3
2018-Nov-03 10:03N 53°44' W 000°17'0 0.4
2018-Nov-03 10:00N 53°44' W 000°17'0 0.0
2018-Nov-03 09:30N 53°44' W 000°17'0 0.0
2018-Nov-03 09:03N 53°44' W 000°17'0 0.1
2018-Nov-03 09:00N 53°44' W 000°17'0 0.3
2018-Nov-03 08:30N 53°44' W 000°17'1 2.2
2018-Nov-03 08:03N 53°44' W 000°15'0 9.9
2018-Nov-03 08:00N 53°43' W 000°15'611.3
2018-Nov-03 07:30N 53°38' W 000°10'510.1
2018-Nov-03 07:03N 53°36' W 000°04'112.1
2018-Nov-03 07:00N 53°36' W 000°03'612.6
2018-Nov-03 06:30N 53°34' E 000°07'613.0
2018-Nov-03 06:03N 53°33' E 000°17'113.4
2018-Nov-03 06:00N 53°33' E 000°18'712.2
2018-Nov-03 05:24N 53°30' E 000°29'412.7
2018-Nov-03 05:03N 53°28' E 000°36'212.9
2018-Nov-03 04:56N 53°27' E 000°39'713.6
2018-Nov-03 04:26N 53°24' E 000°49'513.4
2018-Nov-03 04:03N 53°22' E 000°56'113.3
2018-Nov-03 04:00N 53°22' E 000°57'713.6
2018-Nov-03 03:31N 53°17' E 001°05'613.7
2018-Nov-03 03:04N 53°12' E 001°12'113.9
2018-Nov-03 03:00N 53°12' E 001°13'714.2
2018-Nov-03 02:30N 53°07' E 001°21'714.9
2018-Nov-03 02:03N 53°02' E 001°28'114.4
2018-Nov-03 02:00N 53°01' E 001°29'714.4
2018-Nov-03 01:31N 52°56' E 001°37'714.9
2018-Nov-03 01:03N 52°50' E 001°44'115.2
2018-Nov-03 01:00N 52°50' E 001°45'815.4
2018-Nov-03 00:30N 52°44' E 001°53'716.2
2018-Nov-03 00:03N 52°38' E 001°60'116.1
2018-Nov-03 00:00N 52°37' E 002°01'816.3
2018-Nov-02 23:30N 52°31' E 002°08'916.5
2018-Nov-02 22:57N 52°22' E 002°13'4716.4
2018-Nov-02 20:04N 51°39' E 002°44'016.1
2018-Nov-02 20:02N 51°38' E 002°44'315.7
2018-Nov-02 19:49N 51°35' E 002°47'515.4
2018-Nov-02 19:30N 51°32' E 002°52'715.2
2018-Nov-02 19:03N 51°26' E 002°59'115.0
2018-Nov-02 19:00N 51°26' E 002°60'713.1
2018-Nov-02 18:30N 51°23' E 003°10'3 7.1
2018-Nov-02 18:03N 51°20' E 003°11'0 1.2
2018-Nov-02 18:00N 51°20' E 003°11'0 0.0
2018-Nov-02 17:29N 51°20' E 003°11'0 0.0
2018-Nov-02 16:56N 51°20' E 003°11'0 0.0
2018-Nov-02 16:29N 51°20' E 003°11'0 0.0
2018-Nov-02 16:02N 51°20' E 003°11'0 0.0
2018-Nov-02 15:59N 51°20' E 003°11'0 0.0
2018-Nov-02 15:28N 51°20' E 003°11'0 0.0
2018-Nov-02 15:01N 51°20' E 003°11'0 0.0
2018-Nov-02 14:58N 51°20' E 003°11'0 0.0
2018-Nov-02 14:01N 51°20' E 003°11'0 0.0
2018-Nov-02 13:58N 51°20' E 003°11'0 0.0
2018-Nov-02 13:28N 51°20' E 003°11'0 0.0
2018-Nov-02 13:03N 51°20' E 003°11'0 0.0
2018-Nov-02 13:00N 51°20' E 003°11'0 0.0
2018-Nov-02 12:30N 51°20' E 003°11'0 0.0
2018-Nov-02 12:03N 51°20' E 003°11'0 0.0
2018-Nov-02 12:00N 51°20' E 003°11'0 0.0
2018-Nov-02 11:30N 51°20' E 003°11'0 0.0
2018-Nov-02 11:02N 51°20' E 003°11'0 0.0
2018-Nov-02 11:00N 51°20' E 003°11'0 0.0
2018-Nov-02 10:29N 51°20' E 003°11'0 0.0
2018-Nov-02 10:02N 51°20' E 003°11'0 0.0
2018-Nov-02 09:59N 51°20' E 003°11'0 0.0
2018-Nov-02 09:29N 51°20' E 003°11'0 0.0
2018-Nov-02 08:59N 51°20' E 003°11'0 0.0
2018-Nov-02 08:28N 51°20' E 003°11'0 0.0
2018-Nov-02 08:02N 51°20' E 003°11'0 0.1
2018-Nov-02 08:01N 51°20' E 003°11'1 3.0
2018-Nov-02 07:30N 51°22' E 003°12'715.0
2018-Nov-02 07:03N 51°25' E 003°02'115.2
2018-Nov-02 07:00N 51°25' E 003°01'815.0
2018-Nov-02 06:30N 51°30' E 002°51'714.9
2018-Nov-02 06:02N 51°35' E 002°43'115.6
2018-Nov-02 06:00N 51°35' E 002°42'714.7
2018-Nov-02 05:29N 51°42' E 002°38'1115.2
2018-Nov-02 04:47N 51°52' E 002°33'415.4
2018-Nov-02 04:30N 51°56' E 002°30'715.6
2018-Nov-02 04:02N 52°03' E 002°26'115.9
2018-Nov-02 04:00N 52°04' E 002°26'1515.6
2018-Nov-02 03:02N 52°17' E 002°16'115.5
2018-Nov-02 02:59N 52°18' E 002°15'815.9
2018-Nov-02 02:30N 52°25' E 002°10'716.2
2018-Nov-02 02:03N 52°32' E 002°06'116.3
2018-Nov-02 02:00N 52°32' E 002°05'917.1
2018-Nov-02 01:30N 52°40' E 001°58'817.7
2018-Nov-02 01:03N 52°46' E 001°49'117.5
2018-Nov-02 01:00N 52°46' E 001°48'117.4
2018-Nov-02 00:56N 52°47' E 001°47'617.3
2018-Nov-02 00:36N 52°51' E 001°39'217.2
2018-Nov-02 00:30N 52°52' E 001°37'817.2
2018-Nov-02 00:03N 52°56' E 001°26'117.1
2018-Nov-02 00:00N 52°57' E 001°25'917.0
2018-Nov-01 23:30N 53°00' E 001°13'716.4
2018-Nov-01 23:03N 53°04' E 001°02'116.3
2018-Nov-01 23:00N 53°05' E 001°01'816.3
2018-Nov-01 22:30N 53°10' E 000°51'2216.5
2018-Nov-01 21:09N 53°26' E 000°25'216.5
2018-Nov-01 21:03N 53°28' E 000°23'115.9
2018-Nov-01 21:00N 53°28' E 000°22'815.5
2018-Nov-01 20:30N 53°33' E 000°12'614.2
2018-Nov-01 20:04N 53°35' E 000°02'114.8
2018-Nov-01 20:00N 53°35' E 000°01'713.7
2018-Nov-01 19:30N 53°38' W 000°10'612.9
2018-Nov-01 19:03N 53°43' W 000°15'0 9.9
2018-Nov-01 19:00N 53°44' W 000°15'1 2.3
2018-Nov-01 18:30N 53°44' W 000°16'0 0.3
2018-Nov-01 18:01N 53°45' W 000°16'0 0.0
2018-Nov-01 17:58N 53°45' W 000°16'0 0.0
2018-Nov-01 17:30N 53°45' W 000°16'0 0.0
2018-Nov-01 17:03N 53°45' W 000°16'0 0.1
2018-Nov-01 17:00N 53°45' W 000°16'0 0.0
2018-Nov-01 16:30N 53°45' W 000°16'0 0.0
2018-Nov-01 16:00N 53°45' W 000°16'0 0.0
2018-Nov-01 15:30N 53°45' W 000°16'0 0.0
2018-Nov-01 15:02N 53°45' W 000°16'0 0.0
2018-Nov-01 14:59N 53°45' W 000°16'0 0.0
2018-Nov-01 14:02N 53°45' W 000°16'0 0.0
2018-Nov-01 13:59N 53°45' W 000°16'0 0.0
2018-Nov-01 13:29N 53°45' W 000°16'0 0.0
2018-Nov-01 13:02N 53°45' W 000°16'0 0.0
2018-Nov-01 12:58N 53°45' W 000°16'0 0.0
2018-Nov-01 12:28N 53°45' W 000°16'0 0.0
2018-Nov-01 12:01N 53°45' W 000°16'0 0.1
2018-Nov-01 11:58N 53°45' W 000°16'0 0.0
2018-Nov-01 11:28N 53°45' W 000°16'0 0.0
2018-Nov-01 11:01N 53°45' W 000°16'0 0.0
2018-Nov-01 10:58N 53°45' W 000°16'0 0.0
2018-Nov-01 10:30N 53°45' W 000°16'0 0.0
2018-Nov-01 10:03N 53°45' W 000°16'0 0.0
2018-Nov-01 10:00N 53°45' W 000°16'0 0.0
2018-Nov-01 09:30N 53°45' W 000°16'0 0.0
2018-Nov-01 09:03N 53°45' W 000°16'0 0.0
2018-Nov-01 09:00N 53°45' W 000°16'0 0.0
2018-Nov-01 08:30N 53°45' W 000°16'0 0.2
2018-Nov-01 08:03N 53°44' W 000°16'0 0.1
2018-Nov-01 08:01N 53°44' W 000°16'0 0.4
2018-Nov-01 07:30N 53°44' W 000°16'613.8
2018-Nov-01 07:03N 53°39' W 000°12'113.9
2018-Nov-01 07:00N 53°38' W 000°11'612.0
2018-Nov-01 06:31N 53°36' W 000°02'715.0
2018-Nov-01 06:03N 53°33' E 000°09'114.7
2018-Nov-01 06:00N 53°33' E 000°10'714.4
2018-Nov-01 05:30N 53°33' E 000°22'2014.8
2018-Nov-01 04:07N 53°22' E 000°52'115.0
2018-Nov-01 04:03N 53°22' E 000°53'115.2
2018-Nov-01 04:00N 53°22' E 000°54'815.1
2018-Nov-01 03:31N 53°17' E 001°04'715.3
2018-Nov-01 03:03N 53°11' E 001°11'115.1
2018-Nov-01 03:01N 53°11' E 001°12'  

Dump ship's entire track history